Time;durP1;ratioP1;P1;durP2;ratioP2;P2;SDS_P1;SDS_P2;PMS_P1;PMS_P2;Temp;Humidity;BMP_temperature;BMP_pressure;BME280_temperature;BME280_humidity;BME280_pressure;Samples;Min_cycle;Max_cycle;Signal;HPM_P1;HPM_P2
2023/05/18 00:00:47;;;;;;;5.93;3.47;;;;;;;;;;4998105;28;20430;-87
2023/05/18 00:03:12;;;;;;;9.80;3.13;;;;;;;;;;4991841;28;20183;-85
2023/05/18 00:05:38;;;;;;;3.70;2.20;;;;;;;;;;4995011;28;20453;-86
2023/05/18 00:08:04;;;;;;;7.00;3.90;;;;;;;;;;5004328;28;20438;-87
2023/05/18 00:10:30;;;;;;;8.70;3.38;;;5.90;99.90;;;;;;4995026;28;20446;-87
2023/05/18 00:12:55;;;;;;;2.93;1.73;;;5.90;99.90;;;;;;4997811;28;20191;-87
2023/05/18 00:15:21;;;;;;;9.30;3.13;;;5.90;99.90;;;;;;4992279;28;20744;-87
2023/05/18 00:17:49;;;;;;;3.00;2.20;;;5.90;99.90;;;;;;4994611;28;20191;-87
2023/05/18 00:20:16;;;;;;;3.58;3.10;;;6.00;99.90;;;;;;4997859;28;20244;-85
2023/05/18 00:22:42;;;;;;;8.63;2.10;;;;;;;;;;4993218;28;20195;-87
2023/05/18 00:25:08;;;;;;;6.35;2.85;;;6.00;99.90;;;;;;5006323;28;20703;-87
2023/05/18 00:27:34;;;;;;;6.50;2.87;;;;;;;;;;4995115;28;20179;-86
2023/05/18 00:30:00;;;;;;;4.32;2.50;;;6.00;99.90;;;;;;4995284;28;20250;-87
2023/05/18 00:32:25;;;;;;;10.43;2.07;;;6.20;99.90;;;;;;4994936;28;20261;-87
2023/05/18 00:34:51;;;;;;;4.93;2.27;;;;;;;;;;4994553;28;20175;-86
2023/05/18 00:37:17;;;;;;;7.93;3.40;;;6.20;99.90;;;;;;4998927;28;20205;-87
2023/05/18 00:39:43;;;;;;;3.87;2.80;;;;;;;;;;5011244;28;20464;-87
2023/05/18 00:42:09;;;;;;;6.80;2.40;;;;;;;;;;4997330;28;20659;-87
2023/05/18 00:44:35;;;;;;;4.40;2.53;;;;;;;;;;5017559;28;20449;-88
2023/05/18 00:47:00;;;;;;;9.53;3.10;;;6.20;99.90;;;;;;4996671;28;20265;-87
2023/05/18 00:49:27;;;;;;;4.40;2.47;;;;;;;;;;4991717;28;20802;-88
2023/05/18 00:51:53;;;;;;;4.32;2.83;;;6.20;99.90;;;;;;5005009;28;20186;-88
2023/05/18 00:54:19;;;;;;;3.03;2.20;;;6.20;99.90;;;;;;4992432;28;20186;-88
2023/05/18 00:56:47;;;;;;;3.23;2.20;;;6.20;99.90;;;;;;4996237;28;20934;-87
2023/05/18 00:59:12;;;;;;;4.47;2.25;;;5.60;99.90;;;;;;4995100;28;20195;-86
2023/05/18 01:01:45;;;;;;;3.60;2.30;;;;;;;;;;4989843;28;20182;-86
2023/05/18 01:04:14;;;;;;;4.32;1.85;;;6.40;99.90;;;;;;5002339;28;20280;-86
2023/05/18 01:06:41;;;;;;;5.43;2.65;;;6.50;99.90;;;;;;4993542;28;20225;-86
2023/05/18 01:09:10;;;;;;;3.70;2.85;;;6.80;99.90;;;;;;4985108;28;20210;-85
2023/05/18 01:12:03;;;;;;;3.35;2.40;;;6.90;99.90;;;;;;4994088;28;20183;-86
2023/05/18 01:15:00;;;;;;;4.90;1.85;;;7.00;99.90;;;;;;4979653;28;20198;-86
2023/05/18 01:17:38;;;;;;;4.63;2.45;;;6.90;99.90;;;;;;5002984;28;20234;-86
2023/05/18 01:20:16;;;;;;;17.30;2.40;;;6.80;99.90;;;;;;5000141;28;20737;-86
2023/05/18 01:23:03;;;;;;;10.13;2.50;;;6.80;99.90;;;;;;5003401;28;20192;-87
2023/05/18 01:25:53;;;;;;;3.40;1.90;;;6.70;99.90;;;;;;4992495;28;20281;-87
2023/05/18 01:28:26;;;;;;;3.10;2.40;;;6.60;99.90;;;;;;5003418;28;20187;-85
2023/05/18 01:30:53;;;;;;;4.45;2.75;;;6.60;99.90;;;;;;4983941;28;20183;-84
2023/05/18 01:33:19;;;;;;;6.95;2.53;;;6.60;99.90;;;;;;4983855;28;20194;-84
2023/05/18 01:35:47;;;;;;;6.17;2.90;;;6.60;99.90;;;;;;4984396;28;20195;-85
2023/05/18 01:38:24;;;;;;;7.43;3.28;;;6.60;99.90;;;;;;4983769;28;20440;-85
2023/05/18 01:40:50;;;;;;;5.10;2.72;;;6.30;99.90;;;;;;5001236;28;20187;-85
2023/05/18 01:43:19;;;;;;;6.00;3.00;;;6.50;99.90;;;;;;5000765;28;20942;-84
2023/05/18 01:45:47;;;;;;;4.82;2.33;;;6.40;99.90;;;;;;4987385;28;20353;-84
2023/05/18 01:48:19;;;;;;;2.55;2.20;;;6.40;99.90;;;;;;4993750;28;20550;-84
2023/05/18 01:50:47;;;;;;;2.63;2.00;;;6.40;99.90;;;;;;4994293;28;20191;-84
2023/05/18 01:53:38;;;;;;;4.63;2.70;;;6.30;99.90;;;;;;5001216;28;20265;-84
2023/05/18 01:56:07;;;;;;;6.57;2.20;;;6.30;99.90;;;;;;4986456;28;20222;-84
2023/05/18 01:58:34;;;;;;;7.95;2.30;;;6.20;99.90;;;;;;5005452;28;20176;-85
2023/05/18 02:01:00;;;;;;;10.45;2.40;;;6.20;99.90;;;;;;5006490;28;20183;-84
2023/05/18 02:03:25;;;;;;;2.93;2.30;;;6.20;99.90;;;;;;4988098;28;20175;-88
2023/05/18 02:05:51;;;;;;;6.13;2.83;;;6.30;99.90;;;;;;4992962;28;20203;-85
2023/05/18 02:08:16;;;;;;;3.90;2.20;;;6.30;99.90;;;;;;4994816;28;20277;-88
2023/05/18 02:10:42;;;;;;;8.97;3.10;;;6.30;99.90;;;;;;5005839;28;20631;-88
2023/05/18 02:13:07;;;;;;;3.77;2.30;;;6.20;99.90;;;;;;5005332;28;20199;-85
2023/05/18 02:15:33;;;;;;;6.67;2.70;;;6.40;99.90;;;;;;5000484;28;20221;-85
2023/05/18 02:17:58;;;;;;;5.40;2.70;;;6.40;99.90;;;;;;4988586;28;20189;-86
2023/05/18 02:20:24;;;;;;;4.93;2.07;;;;;;;;;;5004913;28;20179;-87
2023/05/18 02:22:50;;;;;;;3.90;2.40;;;6.40;99.90;;;;;;5005941;28;20183;-87
2023/05/18 02:25:16;;;;;;;4.90;2.20;;;6.30;99.90;;;;;;4992097;28;20518;-86
2023/05/18 02:27:41;;;;;;;3.17;2.23;;;6.40;99.90;;;;;;4993262;28;20206;-86
2023/05/18 02:30:07;;;;;;;13.77;2.83;;;6.40;99.90;;;;;;4996174;28;20667;-87
2023/05/18 02:32:37;;;;;;;4.72;2.97;;;6.40;99.90;;;;;;5006120;28;20186;-86
2023/05/18 02:35:05;;;;;;;8.20;2.95;;;6.40;99.90;;;;;;5017677;28;20202;-86
2023/05/18 02:37:33;;;;;;;4.00;2.50;;;6.40;99.90;;;;;;4996977;28;20186;-86
2023/05/18 02:40:00;;;;;;;5.90;2.30;;;6.50;99.90;;;;;;4990131;28;20221;-84
2023/05/18 02:42:25;;;;;;;5.93;2.20;;;6.70;99.90;;;;;;4992906;28;20264;-84
2023/05/18 02:44:51;;;;;;;3.73;3.10;;;;;;;;;;5004089;28;20207;-84
2023/05/18 02:47:17;;;;;;;3.88;2.42;;;6.70;99.90;;;;;;4989520;28;20286;-84
2023/05/18 02:49:42;;;;;;;4.60;3.00;;;6.70;99.90;;;;;;4990244;28;20273;-84
2023/05/18 02:52:08;;;;;;;4.00;2.00;;;;;;;;;;5004079;28;20382;-84
2023/05/18 02:54:37;;;;;;;6.90;2.30;;;7.00;99.90;;;;;;4992955;28;20191;-84
2023/05/18 02:57:02;;;;;;;6.25;2.92;;;7.10;99.90;;;;;;4990444;28;20997;-84
2023/05/18 02:59:28;;;;;;;5.10;2.53;;;7.00;99.90;;;;;;5002598;28;20277;-83
2023/05/18 03:01:53;;;;;;;3.77;2.33;;;7.00;99.90;;;;;;4986544;28;20729;-82
2023/05/18 03:04:20;;;;;;;5.50;2.20;;;7.10;99.90;;;;;;4985419;28;20281;-83
2023/05/18 03:06:46;;;;;;;3.45;2.65;;;6.90;99.90;;;;;;5002069;28;20683;-83
2023/05/18 03:09:11;;;;;;;3.83;2.23;;;6.80;99.90;;;;;;5000903;28;20246;-83
2023/05/18 03:11:37;;;;;;;3.37;2.00;;;6.70;99.90;;;;;;5002096;28;20187;-83
2023/05/18 03:14:02;;;;;;;5.83;3.13;;;6.70;99.90;;;;;;4999960;28;20187;-83
2023/05/18 03:16:29;;;;;;;5.13;2.43;;;;;;;;;;5001717;28;20229;-83
2023/05/18 03:18:57;;;;;;;6.90;2.25;;;6.50;99.90;;;;;;4983577;28;20178;-83
2023/05/18 03:21:24;;;;;;;5.32;2.60;;;6.50;99.90;;;;;;5002914;28;20392;-82
2023/05/18 03:23:49;;;;;;;4.20;2.80;;;6.40;99.90;;;;;;5000153;28;20224;-83
2023/05/18 03:26:15;;;;;;;5.27;2.50;;;6.30;99.90;;;;;;4999046;28;20194;-83
2023/05/18 03:28:43;;;;;;;8.53;3.20;;;6.30;99.90;;;;;;5001862;28;20679;-82
2023/05/18 03:31:08;;;;;;;5.07;2.58;;;6.20;99.90;;;;;;4981935;28;20187;-82
2023/05/18 03:33:34;;;;;;;4.43;2.60;;;6.20;99.90;;;;;;4997610;28;20187;-82
2023/05/18 03:36:03;;;;;;;2.83;2.53;;;6.00;99.90;;;;;;5001906;28;20643;-82
2023/05/18 03:38:28;;;;;;;6.43;3.10;;;5.90;99.90;;;;;;5000270;28;20187;-82
2023/05/18 03:40:54;;;;;;;6.53;2.90;;;5.80;99.90;;;;;;5002084;28;20201;-82
2023/05/18 03:43:19;;;;;;;9.87;3.83;;;5.80;99.90;;;;;;5001777;28;20202;-82
2023/05/18 03:45:45;;;;;;;6.80;2.80;;;5.70;99.90;;;;;;4998674;28;20492;-82
2023/05/18 03:48:11;;;;;;;8.33;2.47;;;5.60;99.90;;;;;;5003151;28;20190;-83
2023/05/18 03:50:38;;;;;;;4.10;2.87;;;5.40;99.90;;;;;;5001549;28;20218;-84
2023/05/18 03:53:03;;;;;;;1.90;1.70;;;5.30;99.90;;;;;;4997277;28;20187;-84
2023/05/18 03:55:29;;;;;;;4.67;2.33;;;5.30;99.90;;;;;;4984717;28;20567;-83
2023/05/18 03:57:55;;;;;;;12.93;3.47;;;5.40;99.90;;;;;;5001321;28;20182;-83
2023/05/18 04:00:21;;;;;;;7.57;2.55;;;5.70;99.90;;;;;;5001379;28;20182;-83
2023/05/18 04:02:50;;;;;;;3.50;2.17;;;6.10;99.90;;;;;;4989352;28;20194;-84
2023/05/18 04:05:15;;;;;;;5.88;2.50;;;5.90;99.90;;;;;;4998216;28;20607;-83
2023/05/18 04:07:45;;;;;;;3.40;2.40;;;6.20;99.90;;;;;;4982649;28;20179;-83
2023/05/18 04:10:13;;;;;;;7.93;3.08;;;6.20;99.90;;;;;;4998240;28;20174;-83
2023/05/18 04:12:39;;;;;;;5.03;2.35;;;6.40;99.90;;;;;;5001475;28;20199;-83
2023/05/18 04:15:06;;;;;;;3.83;2.80;;;;;;;;;;4999199;28;20179;-84
2023/05/18 04:17:32;;;;;;;5.18;2.42;;;6.60;99.90;;;;;;4991630;28;20461;-83
2023/05/18 04:19:57;;;;;;;7.75;2.17;;;6.80;99.90;;;;;;5000712;28;20179;-82
2023/05/18 04:22:24;;;;;;;5.63;2.30;;;6.90;99.90;;;;;;4999731;28;20189;-84
2023/05/18 04:24:53;;;;;;;6.68;2.50;;;7.10;99.90;;;;;;4986563;28;20234;-83
2023/05/18 04:27:19;;;;;;;10.25;3.20;;;7.10;99.90;;;;;;5005043;28;20187;-83
2023/05/18 04:29:46;;;;;;;5.20;2.60;;;8.10;99.90;;;;;;5004812;28;20210;-83
2023/05/18 04:32:12;;;;;;;2.50;2.30;;;;;;;;;;4990400;28;20269;-84
2023/05/18 04:34:37;;;;;;;3.93;2.40;;;10.60;99.90;;;;;;5003046;28;20317;-84
2023/05/18 04:37:06;;;;;;;10.97;3.07;;;11.80;99.90;;;;;;5007461;28;20462;-83
2023/05/18 04:39:38;;;;;;;4.45;1.98;;;13.20;99.90;;;;;;5009540;28;20578;-84
2023/05/18 04:42:04;;;;;;;5.80;2.10;;;13.20;99.90;;;;;;5012628;28;20170;-84
2023/05/18 04:44:32;;;;;;;3.10;2.47;;;13.60;99.90;;;;;;4992484;28;20203;-84
2023/05/18 04:46:58;;;;;;;5.95;1.95;;;14.70;99.90;;;;;;4999438;28;20822;-85
2023/05/18 04:49:24;;;;;;;4.43;2.13;;;15.00;99.90;;;;;;5007719;28;20179;-84
2023/05/18 04:51:54;;;;;;;7.37;2.80;;;15.00;99.90;;;;;;4992410;28;20220;-84
2023/05/18 04:54:24;;;;;;;4.40;2.60;;;16.10;99.90;;;;;;5003864;28;20521;-85
2023/05/18 04:56:51;;;;;;;3.83;2.37;;;19.10;99.90;;;;;;5002586;28;20461;-84
2023/05/18 04:59:17;;;;;;;6.70;2.30;;;19.20;99.90;;;;;;4990363;28;20533;-84
2023/05/18 05:01:43;;;;;;;5.90;2.17;;;20.70;98.80;;;;;;4981498;28;20473;-83
2023/05/18 05:04:09;;;;;;;8.37;2.10;;;;;;;;;;4982442;28;20509;-83
2023/05/18 05:06:38;;;;;;;5.70;2.30;;;24.20;77.60;;;;;;5002348;28;20194;-84
2023/05/18 05:09:03;;;;;;;3.07;2.30;;;24.20;78.40;;;;;;5004026;28;20476;-84
2023/05/18 05:11:29;;;;;;;5.23;2.27;;;24.90;72.90;;;;;;5005787;28;20468;-84
2023/05/18 05:13:55;;;;;;;2.60;2.03;;;26.00;68.70;;;;;;5008960;28;20186;-84
2023/05/18 05:16:20;;;;;;;9.30;1.90;;;27.40;55.80;;;;;;5004029;28;20210;-84
2023/05/18 05:18:46;;;;;;;7.93;2.50;;;27.00;57.50;;;;;;4987706;28;20802;-84
2023/05/18 05:21:11;;;;;;;3.50;1.97;;;;;;;;;;4989105;28;20179;-84
2023/05/18 05:23:37;;;;;;;4.03;2.43;;;;;;;;;;5007287;28;20179;-85
2023/05/18 05:26:03;;;;;;;3.87;2.00;;;;;;;;;;5004724;28;20453;-84
2023/05/18 05:28:32;;;;;;;4.40;2.20;;;24.40;51.30;;;;;;5003688;28;20437;-84
2023/05/18 05:30:58;;;;;;;6.47;1.83;;;24.50;51.90;;;;;;5004927;28;20970;-83
2023/05/18 05:33:24;;;;;;;4.10;2.33;;;;;;;;;;4994690;28;20437;-83
2023/05/18 05:35:50;;;;;;;2.07;1.67;;;24.50;51.50;;;;;;5003421;28;20225;-83
2023/05/18 05:38:15;;;;;;;5.40;3.00;;;23.90;52.80;;;;;;5001504;28;20445;-83
2023/05/18 05:40:41;;;;;;;3.43;2.10;;;;;;;;;;5005817;28;20197;-82
2023/05/18 05:43:07;;;;;;;4.53;2.20;;;21.60;54.00;;;;;;4986883;28;20591;-82
2023/05/18 05:45:32;;;;;;;5.03;2.20;;;20.70;56.50;;;;;;4990940;28;21052;-83
2023/05/18 05:47:58;;;;;;;7.87;2.70;;;19.50;58.90;;;;;;4989777;28;20217;-82
2023/05/18 05:50:26;;;;;;;9.40;2.67;;;22.00;57.60;;;;;;5003780;28;20194;-83
2023/05/18 05:52:52;;;;;;;5.83;2.47;;;22.20;56.20;;;;;;4991406;28;20179;-82
2023/05/18 05:55:17;;;;;;;6.97;2.13;;;22.30;56.80;;;;;;4984453;28;20552;-81
2023/05/18 05:57:43;;;;;;;2.53;2.13;;;22.50;56.50;;;;;;4983907;28;20201;-81
2023/05/18 06:00:10;;;;;;;3.03;1.80;;;23.00;55.20;;;;;;5002530;28;20667;-81
2023/05/18 06:02:36;;;;;;;4.30;2.03;;;23.00;55.60;;;;;;4989747;28;20186;-81
2023/05/18 06:05:02;;;;;;;3.20;2.03;;;;;;;;;;5004362;28;20469;-81
2023/05/18 06:07:29;;;;;;;7.53;2.67;;;23.70;54.10;;;;;;5006280;28;20428;-81
2023/05/18 06:09:55;;;;;;;5.40;2.07;;;23.70;53.60;;;;;;5008132;28;20440;-82
2023/05/18 06:12:20;;;;;;;4.93;2.70;;;23.80;54.30;;;;;;5006621;28;20927;-82
2023/05/18 06:14:46;;;;;;;5.90;2.80;;;24.60;52.50;;;;;;4989600;28;20178;-82
2023/05/18 06:17:11;;;;;;;8.00;2.20;;;24.60;52.80;;;;;;5003909;28;20207;-82
2023/05/18 06:19:40;;;;;;;5.53;1.93;;;24.30;53.10;;;;;;5004466;28;20585;-84
2023/05/18 06:22:05;;;;;;;3.63;2.37;;;24.60;54.10;;;;;;5006455;28;20179;-84
2023/05/18 06:24:31;;;;;;;2.33;2.10;;;25.10;51.00;;;;;;5004372;28;20548;-82
2023/05/18 06:26:57;;;;;;;6.70;2.40;;;;;;;;;;5006718;28;20558;-85
2023/05/18 06:29:23;;;;;;;8.43;2.50;;;;;;;;;;5007067;28;20183;-82
2023/05/18 06:31:49;;;;;;;2.97;2.07;;;;;;;;;;5002599;28;20487;-85
2023/05/18 06:34:15;;;;;;;3.30;1.80;;;;;;;;;;5003666;28;20493;-85
2023/05/18 06:36:41;;;;;;;7.57;2.60;;;;;;;;;;5005969;28;20469;-86
2023/05/18 06:39:07;;;;;;;9.57;3.00;;;;;;;;;;5001586;28;20433;-85
2023/05/18 06:41:40;;;;;;;5.70;1.63;;;26.20;45.90;;;;;;4994134;28;20784;-82
2023/05/18 06:44:07;;;;;;;2.37;1.90;;;24.60;47.90;;;;;;5004959;28;20464;-82
2023/05/18 06:46:33;;;;;;;1.97;1.77;;;23.70;50.20;;;;;;5004035;28;20463;-82
2023/05/18 06:48:58;;;;;;;8.33;2.37;;;24.00;50.30;;;;;;5001270;28;20507;-83
2023/05/18 06:51:24;;;;;;;3.90;2.20;;;24.00;50.80;;;;;;4993259;28;20627;-82
2023/05/18 06:53:49;;;;;;;3.93;2.43;;;22.70;49.40;;;;;;4985819;28;20225;-83
2023/05/18 06:58:47;;;;;;;3.07;1.90;;;;;;;;;;4994135;28;20218;-80
2023/05/18 07:01:12;;;;;;;4.87;2.97;;;23.90;50.20;;;;;;4994244;28;20441;-81
2023/05/18 07:03:38;;;;;;;5.33;2.20;;;;;;;;;;4978007;28;20446;-81
2023/05/18 07:06:04;;;;;;;7.10;2.73;;;23.40;51.20;;;;;;4996168;28;20229;-82
2023/05/18 07:08:30;;;;;;;4.70;1.87;;;24.20;51.10;;;;;;4994928;28;20450;-80
2023/05/18 07:10:56;;;;;;;2.33;1.93;;;;;;;;;;4980201;28;20206;-85
2023/05/18 07:13:23;;;;;;;2.53;2.00;;;23.80;49.20;;;;;;4975436;28;20446;-83
2023/05/18 07:15:49;;;;;;;3.73;2.20;;;21.80;49.60;;;;;;4974195;28;20500;-83
2023/05/18 07:18:15;;;;;;;9.23;2.67;;;22.50;51.90;;;;;;4990604;28;20465;-83
2023/05/18 07:20:40;;;;;;;4.43;2.40;;;;;;;;;;4992434;28;20887;-84
2023/05/18 07:23:06;;;;;;;5.33;2.30;;;22.70;52.20;;;;;;4994310;28;20175;-84
2023/05/18 07:25:32;;;;;;;2.70;1.90;;;22.30;52.00;;;;;;4991148;28;20467;-83
2023/05/18 07:27:58;;;;;;;4.83;2.50;;;23.90;53.60;;;;;;4994021;28;20458;-82
2023/05/18 07:30:25;;;;;;;5.30;2.73;;;25.20;52.70;;;;;;4993798;28;20481;-84
2023/05/18 07:32:51;;;;;;;4.50;2.33;;;25.10;51.30;;;;;;4973158;28;20171;-81
2023/05/18 07:35:20;;;;;;;4.80;2.80;;;26.30;51.40;;;;;;4994318;28;21010;-83
2023/05/18 07:37:46;;;;;;;3.33;2.70;;;;;;;;;;4991741;28;20532;-84
2023/05/18 07:40:12;;;;;;;7.90;4.80;;;;;;;;;;4995617;28;21154;-82
2023/05/18 07:42:39;;;;;;;4.00;3.27;;;27.80;43.90;;;;;;4994630;28;20430;-84
2023/05/18 07:45:05;;;;;;;8.10;2.63;;;27.70;44.90;;;;;;4991987;28;20462;-84
2023/05/18 07:47:31;;;;;;;3.70;2.63;;;27.40;44.80;;;;;;4969845;28;20585;-83
2023/05/18 07:49:57;;;;;;;5.80;2.20;;;27.00;46.60;;;;;;4989515;28;20485;-82
2023/05/18 07:52:23;;;;;;;5.77;2.33;;;;;;;;;;4974337;28;20179;-85
2023/05/18 07:54:48;;;;;;;5.60;2.57;;;26.60;43.70;;;;;;4973604;28;20195;-85
2023/05/18 07:57:14;;;;;;;3.40;2.50;;;;;;;;;;4990477;28;20481;-82
2023/05/18 07:59:40;;;;;;;9.10;2.73;;;;;;;;;;4971446;28;20298;-87
2023/05/18 08:02:06;;;;;;;5.13;2.50;;;;;;;;;;4967513;28;20913;-82
2023/05/18 08:04:32;;;;;;;8.10;2.40;;;;;;;;;;4974415;28;20459;-85
2023/05/18 08:06:59;;;;;;;2.73;2.43;;;;;;;;;;4974576;28;20866;-87
2023/05/18 08:09:28;;;;;;;4.07;2.37;;;26.20;47.30;;;;;;4976379;28;20979;-84
2023/05/18 08:11:54;;;;;;;6.43;2.33;;;25.60;48.30;;;;;;4986326;28;20435;-85
2023/05/18 08:14:20;;;;;;;6.40;2.70;;;25.60;47.90;;;;;;4990197;28;20585;-85
2023/05/18 08:16:46;;;;;;;5.80;2.53;;;;;;;;;;4991213;28;20210;-83
2023/05/18 08:19:12;;;;;;;16.70;2.73;;;;;;;;;;4993040;28;20804;-84
2023/05/18 08:21:38;;;;;;;2.20;2.00;;;27.20;47.00;;;;;;4994344;28;20449;-82
2023/05/18 08:24:06;;;;;;;4.33;3.90;;;27.80;47.20;;;;;;4992978;28;20468;-85
2023/05/18 08:26:32;;;;;;;6.27;4.30;;;;;;;;;;4976848;28;20446;-82
2023/05/18 08:28:58;;;;;;;6.20;3.20;;;;;;;;;;4991829;28;20483;-83
2023/05/18 08:31:23;;;;;;;6.40;2.80;;;25.80;48.80;;;;;;4975608;28;20769;-80
2023/05/18 08:33:49;;;;;;;5.43;2.47;;;25.60;47.70;;;;;;4990821;28;20444;-84
2023/05/18 08:36:16;;;;;;;6.70;2.40;;;25.90;45.80;;;;;;4989568;28;20157;-81
2023/05/18 08:38:42;;;;;;;3.37;2.10;;;25.70;46.60;;;;;;4977042;28;20430;-83
2023/05/18 08:41:27;;;;;;;6.10;3.10;;;25.70;47.40;;;;;;4975194;28;20472;-81
2023/05/18 08:44:01;;;;;;;8.47;3.07;;;26.50;46.40;;;;;;4991286;28;20184;-77
2023/05/18 08:46:49;;;;;;;5.97;3.03;;;26.60;46.00;;;;;;4964426;28;20517;-81
2023/05/18 08:49:20;;;;;;;6.70;2.67;;;25.00;47.40;;;;;;4969890;28;20436;-81
2023/05/18 08:51:53;;;;;;;7.60;2.97;;;23.60;47.00;;;;;;4992277;28;21270;-83
2023/05/18 08:54:20;;;;;;;5.93;2.50;;;23.60;47.50;;;;;;4992028;28;20505;-80
2023/05/18 08:56:46;;;;;;;8.83;2.90;;;23.00;49.30;;;;;;4991689;28;20477;-81
2023/05/18 08:59:15;;;;;;;8.67;2.60;;;22.40;50.20;;;;;;4977315;28;20517;-81
2023/05/18 09:01:41;;;;;;;6.37;2.83;;;23.60;51.00;;;;;;4989936;28;20645;-81
2023/05/18 09:04:08;;;;;;;3.80;2.53;;;23.40;48.00;;;;;;4991842;28;20464;-82
2023/05/18 09:06:35;;;;;;;5.23;2.30;;;24.00;50.90;;;;;;4996369;28;20531;-85
2023/05/18 09:09:04;;;;;;;5.30;2.77;;;24.60;50.50;;;;;;4995159;28;20787;-81
2023/05/18 09:11:31;;;;;;;4.70;2.63;;;25.60;49.60;;;;;;4994016;28;20985;-81
2023/05/18 09:13:58;;;;;;;8.03;3.20;;;25.30;47.80;;;;;;4995030;28;20854;-81
2023/05/18 09:16:24;;;;;;;8.43;3.10;;;23.70;46.40;;;;;;4995174;28;20453;-81
2023/05/18 09:18:50;;;;;;;6.13;2.80;;;23.60;47.00;;;;;;4976549;28;20437;-81
2023/05/18 09:21:16;;;;;;;8.50;3.17;;;23.50;49.00;;;;;;4999472;28;20179;-84
2023/05/18 09:23:42;;;;;;;7.90;5.60;;;23.40;49.00;;;;;;4994930;28;20468;-79
2023/05/18 09:26:12;;;;;;;9.53;2.60;;;23.00;50.30;;;;;;4995958;28;20183;-80
2023/05/18 09:28:39;;;;;;;7.30;2.43;;;22.40;50.40;;;;;;4996371;28;20494;-80
2023/05/18 09:31:07;;;;;;;9.33;3.00;;;21.70;50.80;;;;;;4997029;28;20448;-81
2023/05/18 09:33:38;;;;;;;7.63;2.93;;;22.30;51.30;;;;;;5002586;28;20422;-82
2023/05/18 09:36:05;;;;;;;7.37;2.70;;;21.50;49.20;;;;;;4994343;28;20797;-82
2023/05/18 09:38:34;;;;;;;8.40;3.10;;;21.50;50.30;;;;;;4998381;28;20942;-80
2023/05/18 09:41:00;;;;;;;7.80;2.23;;;21.60;52.80;;;;;;4996471;28;20441;-81
2023/05/18 09:43:26;;;;;;;3.40;2.23;;;21.50;50.90;;;;;;4982439;28;20434;-86
2023/05/18 09:45:52;;;;;;;5.43;2.33;;;;;;;;;;4999592;28;20210;-80
2023/05/18 09:48:17;;;;;;;7.40;3.43;;;21.70;50.90;;;;;;5000680;28;20454;-83
2023/05/18 09:50:44;;;;;;;9.17;2.60;;;22.20;53.00;;;;;;5000680;28;20763;-83
2023/05/18 09:53:12;;;;;;;3.40;2.00;;;24.30;49.30;;;;;;4992311;28;20243;-84
2023/05/18 09:55:47;;;;;;;5.27;3.00;;;23.30;49.50;;;;;;4996378;28;20445;-83
2023/05/18 09:58:13;;;;;;;9.40;4.40;;;;;;;;;;4982948;28;20463;-85
2023/05/18 10:00:50;;;;;;;5.03;2.60;;;22.40;50.00;;;;;;5001071;28;21004;-83
2023/05/18 10:03:23;;;;;;;4.77;2.77;;;21.30;48.40;;;;;;5000547;28;20401;-82
2023/05/18 10:05:49;;;;;;;4.03;2.70;;;20.90;49.90;;;;;;4982279;28;20485;-81
2023/05/18 10:08:15;;;;;;;4.00;3.00;;;21.60;49.80;;;;;;4982582;28;20437;-83
2023/05/18 10:10:46;;;;;;;8.97;3.20;;;21.50;50.10;;;;;;5000470;28;20484;-83
2023/05/18 10:13:18;;;;;;;4.80;2.73;;;21.90;50.70;;;;;;4999835;28;20999;-82
2023/05/18 10:15:53;;;;;;;4.63;3.10;;;22.50;49.40;;;;;;4999452;28;20441;-83
2023/05/18 10:18:28;;;;;;;4.43;2.20;;;22.70;50.10;;;;;;5000306;28;20438;-81
2023/05/18 10:20:58;;;;;;;4.73;2.40;;;22.10;49.50;;;;;;4997004;28;20468;-81
2023/05/18 10:23:26;;;;;;;3.00;2.53;;;20.60;49.60;;;;;;4993780;28;20526;-81
2023/05/18 10:25:53;;;;;;;10.23;2.67;;;20.60;50.20;;;;;;4993293;28;20979;-80
2023/05/18 10:28:29;;;;;;;3.80;2.70;;;20.10;51.60;;;;;;4995324;28;20504;-84
2023/05/18 10:30:57;;;;;;;6.90;2.13;;;20.10;51.70;;;;;;4991553;28;20474;-83
2023/05/18 10:33:25;;;;;;;8.17;2.70;;;19.70;52.80;;;;;;4962341;28;20407;-86
2023/05/18 10:35:51;;;;;;;9.20;2.53;;;19.60;53.50;;;;;;4988627;28;20418;-85
2023/05/18 10:38:25;;;;;;;3.20;2.13;;;18.90;51.90;;;;;;4999326;28;20434;-85
2023/05/18 10:40:54;;;;;;;6.70;2.33;;;18.70;56.20;;;;;;4983680;28;20922;-84
2023/05/18 10:43:25;;;;;;;4.10;2.30;;;18.60;56.70;;;;;;5000103;28;20420;-82
2023/05/18 10:45:53;;;;;;;3.67;2.00;;;18.50;54.90;;;;;;4999416;28;20461;-84
2023/05/18 10:48:20;;;;;;;4.30;3.00;;;18.20;53.40;;;;;;4997234;28;20573;-81
2023/05/18 10:50:48;;;;;;;3.13;2.17;;;18.10;54.00;;;;;;4996649;28;20410;-82
2023/05/18 10:53:20;;;;;;;2.57;2.33;;;17.90;54.20;;;;;;4978981;28;20433;-86
2023/05/18 10:55:50;;;;;;;9.33;2.37;;;18.20;55.10;;;;;;4979104;28;20418;-83
2023/05/18 10:58:18;;;;;;;3.20;2.07;;;17.80;56.50;;;;;;4986499;28;20540;-83
2023/05/18 11:00:48;;;;;;;8.13;2.43;;;18.20;56.80;;;;;;4959949;28;20473;-82
2023/05/18 11:03:15;;;;;;;7.13;1.97;;;18.40;55.20;;;;;;4977832;28;20498;-82
2023/05/18 11:05:42;;;;;;;5.93;1.97;;;18.60;56.40;;;;;;4958805;28;20466;-81
2023/05/18 11:08:08;;;;;;;3.17;2.07;;;18.20;54.90;;;;;;4976474;28;20434;-82
2023/05/18 11:10:42;;;;;;;5.90;2.50;;;18.00;54.30;;;;;;4976793;28;20833;-81
2023/05/18 11:13:10;;;;;;;4.77;1.93;;;17.80;54.60;;;;;;4993295;28;20450;-82
2023/05/18 11:15:54;;;;;;;9.20;2.80;;;17.90;55.80;;;;;;4993902;28;20426;-81
2023/05/18 11:18:45;;;;;;;4.90;2.10;;;18.00;57.00;;;;;;4995275;28;20434;-81
2023/05/18 11:21:40;;;;;;;6.37;2.60;;;18.10;55.90;;;;;;4994154;28;20438;-83
2023/05/18 11:24:27;;;;;;;3.50;2.10;;;17.90;55.10;;;;;;4971184;28;20840;-81
2023/05/18 11:26:59;;;;;;;9.80;2.30;;;17.70;55.60;;;;;;4994777;28;20942;-82
2023/05/18 11:29:33;;;;;;;3.97;2.63;;;17.30;54.80;;;;;;4994989;28;20433;-84
2023/05/18 11:31:59;;;;;;;7.20;2.30;;;17.10;55.30;;;;;;4994637;28;20406;-84
2023/05/18 11:34:34;;;;;;;4.03;1.77;;;17.40;58.40;;;;;;4996338;28;20409;-84
2023/05/18 11:37:00;;;;;;;11.17;2.67;;;17.50;58.30;;;;;;4996915;28;20449;-82
2023/05/18 11:39:26;;;;;;;3.50;2.20;;;17.80;57.70;;;;;;4996429;28;20406;-82
2023/05/18 11:42:08;;;;;;;4.70;2.37;;;18.10;57.80;;;;;;4980408;28;20541;-84
2023/05/18 11:44:34;;;;;;;4.73;1.80;;;17.80;56.20;;;;;;4997127;28;20442;-80
2023/05/18 11:47:10;;;;;;;7.33;4.07;;;18.00;57.00;;;;;;4996530;28;20457;-81
2023/05/18 11:49:43;;;;;;;7.20;2.30;;;19.60;57.10;;;;;;4979009;28;20468;-83
2023/05/18 11:52:20;;;;;;;6.70;2.60;;;18.70;55.60;;;;;;4998978;28;20438;-82
2023/05/18 11:54:48;;;;;;;6.30;2.67;;;17.80;54.30;;;;;;4996872;28;20418;-84
2023/05/18 11:57:16;;;;;;;3.50;2.00;;;17.60;56.10;;;;;;4999336;28;20502;-83
2023/05/18 11:59:47;;;;;;;3.17;2.03;;;17.60;54.80;;;;;;4997081;28;20476;-85
2023/05/18 12:02:25;;;;;;;4.83;1.77;;;17.80;58.40;;;;;;4997813;28;20418;-85
2023/05/18 12:04:53;;;;;;;5.10;2.50;;;18.30;53.40;;;;;;4998177;28;20442;-83
2023/05/18 12:07:19;;;;;;;5.47;1.90;;;18.30;53.90;;;;;;4997945;28;20462;-84
2023/05/18 12:09:46;;;;;;;4.60;1.80;;;18.10;55.60;;;;;;4997857;28;20921;-82
2023/05/18 12:12:16;;;;;;;7.83;2.33;;;18.10;55.90;;;;;;4998079;28;20414;-86
2023/05/18 12:14:42;;;;;;;7.10;2.60;;;18.00;54.90;;;;;;4998007;28;20406;-82
2023/05/18 12:17:09;;;;;;;9.70;2.40;;;18.20;56.50;;;;;;4997844;28;20461;-85
2023/05/18 12:19:42;;;;;;;5.53;2.00;;;18.40;57.80;;;;;;4997945;28;20489;-83
2023/05/18 12:22:08;;;;;;;2.87;2.37;;;18.40;54.00;;;;;;4998794;28;20410;-82
2023/05/18 12:24:33;;;;;;;9.03;2.07;;;18.50;57.60;;;;;;4997635;28;20521;-82
2023/05/18 12:27:03;;;;;;;4.90;2.07;;;18.90;57.80;;;;;;4997948;28;20494;-85
2023/05/18 12:29:29;;;;;;;6.37;2.40;;;18.90;54.30;;;;;;4998241;28;20167;-86
2023/05/18 12:31:55;;;;;;;5.17;2.07;;;18.50;54.50;;;;;;4997380;28;20417;-82
2023/05/18 12:34:21;;;;;;;3.90;1.50;;;18.30;54.80;;;;;;4996445;28;20434;-81
2023/05/18 12:36:53;;;;;;;4.23;1.73;;;18.20;53.30;;;;;;4997740;28;20565;-80
2023/05/18 12:39:20;;;;;;;3.53;1.73;;;18.20;55.20;;;;;;4997976;28;20697;-86
2023/05/18 12:41:46;;;;;;;2.10;1.90;;;18.30;53.50;;;;;;4998023;28;20414;-82
2023/05/18 12:44:12;;;;;;;3.97;2.17;;;18.00;53.50;;;;;;4998017;28;20454;-82
2023/05/18 12:46:43;;;;;;;3.83;1.70;;;17.90;55.20;;;;;;5000105;28;20437;-83
2023/05/18 12:49:09;;;;;;;3.70;1.87;;;;;;;;;;5000804;28;20549;-85
2023/05/18 12:51:36;;;;;;;6.30;2.30;;;18.30;54.20;;;;;;5001705;28;20417;-82
2023/05/18 12:54:04;;;;;;;9.87;1.93;;;18.30;54.70;;;;;;4983768;28;20436;-84
2023/05/18 12:56:51;;;;;;;5.00;2.63;;;18.40;54.90;;;;;;4983510;28;20496;-83
2023/05/18 12:59:18;;;;;;;4.10;2.23;;;18.50;54.80;;;;;;5000385;28;20422;-83
2023/05/18 13:01:44;;;;;;;2.17;1.50;;;18.60;55.30;;;;;;4980943;28;20458;-86
2023/05/18 13:04:10;;;;;;;7.10;2.23;;;18.40;53.90;;;;;;4998792;28;20458;-85
2023/05/18 13:06:40;;;;;;;9.90;3.03;;;18.60;53.30;;;;;;4984587;28;20525;-83
2023/05/18 13:09:12;;;;;;;8.23;2.17;;;18.60;53.80;;;;;;4999139;28;20426;-83
2023/05/18 13:11:38;;;;;;;6.87;2.20;;;18.60;53.80;;;;;;4998941;28;20450;-82